Alegrete do Piaui, Brazil
Current Conditions -  °F | °C
As of 11:00 AM on Thursday 30 Oct 2014 (Local Time) from SBJU Reporting Station
Scattered Clouds Scattered Clouds  
Wind Chill: 90°   Ceiling: Unl
Heat Index: 90°   Visibility: 6mi
Dew Point: 63°   Wind: 9mph
Humidity: 40%   Direction: 150°SSE
Pressure: 30"   Gusts: NA
Location:  7.24°S, 40.86°W
Report Text: SBJU 301400Z 15008KT 9999 SCT020 32/17 Q1016
Loading
Personal Weather Stations






























Interactive Weather Map
Tropical Storm Tracking
New forecast layout! Learn more

10-Day Weather Forecast

Advertisements
Track Severe Weather on mobile